sensor_id;sensor_type;location;lat;lon;timestamp;pressure;altitude;pressure_sealevel;temperature;humidity
24154;BME280;12312;53.362;-1.518;2022-10-18T00:01:06;100094.84;;;9.57;87.15
24154;BME280;12312;53.362;-1.518;2022-10-18T00:03:33;100087.28;;;9.65;86.26
24154;BME280;12312;53.362;-1.518;2022-10-18T00:05:58;100097.75;;;9.68;87.81
24154;BME280;12312;53.362;-1.518;2022-10-18T00:08:25;100089.50;;;9.72;85.52
24154;BME280;12312;53.362;-1.518;2022-10-18T00:10:51;100104.47;;;9.90;85.92
24154;BME280;12312;53.362;-1.518;2022-10-18T00:13:19;100106.16;;;9.76;85.73
24154;BME280;12312;53.362;-1.518;2022-10-18T00:15:58;100122.03;;;9.77;84.17
24154;BME280;12312;53.362;-1.518;2022-10-18T00:18:24;100124.72;;;9.45;85.24
24154;BME280;12312;53.362;-1.518;2022-10-18T00:21:01;100125.31;;;9.50;88.00
24154;BME280;12312;53.362;-1.518;2022-10-18T00:23:29;100119.41;;;9.45;87.37
24154;BME280;12312;53.362;-1.518;2022-10-18T00:26:08;100119.41;;;9.45;88.70
24154;BME280;12312;53.362;-1.518;2022-10-18T00:28:35;100118.75;;;9.57;86.68
24154;BME280;12312;53.362;-1.518;2022-10-18T00:33:48;100125.66;;;9.44;86.12
24154;BME280;12312;53.362;-1.518;2022-10-18T00:36:13;100126.03;;;9.53;85.78
24154;BME280;12312;53.362;-1.518;2022-10-18T00:38:39;100131.38;;;9.69;85.26
24154;BME280;12312;53.362;-1.518;2022-10-18T00:41:09;100126.22;;;9.66;85.60
24154;BME280;12312;53.362;-1.518;2022-10-18T00:43:56;100133.56;;;9.61;85.67
24154;BME280;12312;53.362;-1.518;2022-10-18T00:46:22;100137.50;;;9.54;86.67
24154;BME280;12312;53.362;-1.518;2022-10-18T00:48:48;100145.19;;;9.43;86.63
24154;BME280;12312;53.362;-1.518;2022-10-18T00:51:15;100154.91;;;9.27;87.36
24154;BME280;12312;53.362;-1.518;2022-10-18T00:53:43;100158.97;;;9.17;86.36
24154;BME280;12312;53.362;-1.518;2022-10-18T00:56:10;100152.69;;;9.35;87.52
24154;BME280;12312;53.362;-1.518;2022-10-18T00:58:36;100163.31;;;9.35;86.84
24154;BME280;12312;53.362;-1.518;2022-10-18T01:01:02;100158.88;;;9.35;86.30
24154;BME280;12312;53.362;-1.518;2022-10-18T01:03:27;100146.91;;;9.44;86.76
24154;BME280;12312;53.362;-1.518;2022-10-18T01:05:53;100151.06;;;9.49;85.43
24154;BME280;12312;53.362;-1.518;2022-10-18T01:11:01;100153.09;;;9.44;85.85
24154;BME280;12312;53.362;-1.518;2022-10-18T01:13:59;100154.59;;;8.98;87.30
24154;BME280;12312;53.362;-1.518;2022-10-18T01:16:43;100152.56;;;8.69;88.19
24154;BME280;12312;53.362;-1.518;2022-10-18T01:19:32;100162.56;;;8.81;89.02
24154;BME280;12312;53.362;-1.518;2022-10-18T01:22:08;100162.72;;;8.78;88.86
24154;BME280;12312;53.362;-1.518;2022-10-18T01:30:05;100180.72;;;7.99;91.65
24154;BME280;12312;53.362;-1.518;2022-10-18T01:32:40;100185.31;;;8.14;92.99
24154;BME280;12312;53.362;-1.518;2022-10-18T01:35:13;100178.69;;;8.24;91.46
24154;BME280;12312;53.362;-1.518;2022-10-18T01:37:42;100181.25;;;8.61;88.89
24154;BME280;12312;53.362;-1.518;2022-10-18T01:40:11;100174.09;;;8.63;88.71
24154;BME280;12312;53.362;-1.518;2022-10-18T01:42:39;100172.69;;;8.56;89.74
24154;BME280;12312;53.362;-1.518;2022-10-18T01:45:05;100178.06;;;8.55;89.71
24154;BME280;12312;53.362;-1.518;2022-10-18T01:47:33;100175.50;;;8.70;88.48
24154;BME280;12312;53.362;-1.518;2022-10-18T01:50:03;100175.50;;;8.70;88.72
24154;BME280;12312;53.362;-1.518;2022-10-18T01:52:28;100177.22;;;8.71;88.69
24154;BME280;12312;53.362;-1.518;2022-10-18T01:54:55;100186.19;;;8.33;89.09
24154;BME280;12312;53.362;-1.518;2022-10-18T02:00:40;100191.88;;;8.61;91.10
24154;BME280;12312;53.362;-1.518;2022-10-18T02:03:20;100188.94;;;8.84;90.95
24154;BME280;12312;53.362;-1.518;2022-10-18T02:05:57;100190.81;;;8.65;90.18
24154;BME280;12312;53.362;-1.518;2022-10-18T02:13:24;100189.09;;;8.81;91.10
24154;BME280;12312;53.362;-1.518;2022-10-18T02:15:56;100184.28;;;9.07;91.14
24154;BME280;12312;53.362;-1.518;2022-10-18T02:18:31;100179.97;;;9.21;88.79
24154;BME280;12312;53.362;-1.518;2022-10-18T02:21:00;100190.84;;;9.17;89.56
24154;BME280;12312;53.362;-1.518;2022-10-18T02:23:28;100202.34;;;9.17;88.60
24154;BME280;12312;53.362;-1.518;2022-10-18T02:25:54;100213.41;;;8.91;89.11
24154;BME280;12312;53.362;-1.518;2022-10-18T02:28:20;100223.16;;;9.07;90.22
24154;BME280;12312;53.362;-1.518;2022-10-18T02:30:51;100209.75;;;9.11;87.80
24154;BME280;12312;53.362;-1.518;2022-10-18T02:33:44;100217.16;;;9.04;87.97
24154;BME280;12312;53.362;-1.518;2022-10-18T02:36:23;100207.53;;;8.84;88.84
24154;BME280;12312;53.362;-1.518;2022-10-18T02:38:55;100221.97;;;8.79;88.92
24154;BME280;12312;53.362;-1.518;2022-10-18T02:41:24;100218.59;;;8.75;89.10
24154;BME280;12312;53.362;-1.518;2022-10-18T02:43:50;100228.44;;;8.73;89.43
24154;BME280;12312;53.362;-1.518;2022-10-18T02:46:17;100222.28;;;8.73;89.54
24154;BME280;12312;53.362;-1.518;2022-10-18T02:48:43;100221.09;;;8.78;89.64
24154;BME280;12312;53.362;-1.518;2022-10-18T02:51:09;100211.28;;;8.80;90.04
24154;BME280;12312;53.362;-1.518;2022-10-18T02:53:34;100210.34;;;8.81;90.38
24154;BME280;12312;53.362;-1.518;2022-10-18T02:56:01;100207.97;;;8.75;89.71
24154;BME280;12312;53.362;-1.518;2022-10-18T02:58:29;100208.69;;;8.79;90.18
24154;BME280;12312;53.362;-1.518;2022-10-18T03:00:54;100217.41;;;8.64;90.47
24154;BME280;12312;53.362;-1.518;2022-10-18T03:03:20;100228.03;;;8.64;91.31
24154;BME280;12312;53.362;-1.518;2022-10-18T03:05:49;100224.66;;;8.60;91.43
24154;BME280;12312;53.362;-1.518;2022-10-18T03:08:15;100227.72;;;8.14;91.56
24154;BME280;12312;53.362;-1.518;2022-10-18T03:10:45;100225.84;;;7.79;92.84
24154;BME280;12312;53.362;-1.518;2022-10-18T03:13:15;100221.41;;;7.98;94.04
24154;BME280;12312;53.362;-1.518;2022-10-18T03:15:45;100219.56;;;8.00;94.13
24154;BME280;12312;53.362;-1.518;2022-10-18T03:18:15;100228.88;;;8.09;93.19
24154;BME280;12312;53.362;-1.518;2022-10-18T03:20:44;100234.38;;;8.04;92.90
24154;BME280;12312;53.362;-1.518;2022-10-18T03:23:11;100239.75;;;8.03;93.04
24154;BME280;12312;53.362;-1.518;2022-10-18T03:25:39;100242.63;;;7.98;92.27
24154;BME280;12312;53.362;-1.518;2022-10-18T03:28:09;100246.69;;;8.05;92.27
24154;BME280;12312;53.362;-1.518;2022-10-18T03:30:39;100238.00;;;8.22;92.58
24154;BME280;12312;53.362;-1.518;2022-10-18T03:33:05;100237.53;;;8.32;92.17
24154;BME280;12312;53.362;-1.518;2022-10-18T03:35:31;100239.75;;;8.41;91.37
24154;BME280;12312;53.362;-1.518;2022-10-18T03:37:56;100248.56;;;8.23;91.49
24154;BME280;12312;53.362;-1.518;2022-10-18T03:40:22;100254.50;;;8.08;91.71
24154;BME280;12312;53.362;-1.518;2022-10-18T03:42:48;100260.94;;;7.84;92.42
24154;BME280;12312;53.362;-1.518;2022-10-18T03:45:14;100266.84;;;7.51;92.26
24154;BME280;12312;53.362;-1.518;2022-10-18T03:47:39;100254.19;;;7.77;93.21
24154;BME280;12312;53.362;-1.518;2022-10-18T03:50:05;100262.25;;;7.94;91.74
24154;BME280;12312;53.362;-1.518;2022-10-18T03:52:31;100263.69;;;8.01;91.42
24154;BME280;12312;53.362;-1.518;2022-10-18T03:54:56;100263.97;;;7.95;91.81
24154;BME280;12312;53.362;-1.518;2022-10-18T03:57:22;100269.78;;;8.03;92.87
24154;BME280;12312;53.362;-1.518;2022-10-18T03:59:47;100273.22;;;8.05;92.60
24154;BME280;12312;53.362;-1.518;2022-10-18T04:02:13;100286.25;;;7.71;93.32
24154;BME280;12312;53.362;-1.518;2022-10-18T04:04:39;100288.63;;;7.57;94.81
24154;BME280;12312;53.362;-1.518;2022-10-18T04:07:04;100276.78;;;7.66;94.92
24154;BME280;12312;53.362;-1.518;2022-10-18T04:09:30;100284.22;;;7.58;95.56
24154;BME280;12312;53.362;-1.518;2022-10-18T04:11:56;100283.34;;;7.77;95.05
24154;BME280;12312;53.362;-1.518;2022-10-18T04:14:22;100279.00;;;7.95;93.04
24154;BME280;12312;53.362;-1.518;2022-10-18T04:16:47;100273.13;;;8.07;92.86
24154;BME280;12312;53.362;-1.518;2022-10-18T04:19:13;100277.47;;;8.09;91.91
24154;BME280;12312;53.362;-1.518;2022-10-18T04:21:39;100268.72;;;8.07;92.49
24154;BME280;12312;53.362;-1.518;2022-10-18T04:24:05;100269.44;;;8.11;93.58
24154;BME280;12312;53.362;-1.518;2022-10-18T04:26:31;100270.00;;;8.17;93.63
24154;BME280;12312;53.362;-1.518;2022-10-18T04:28:56;100265.19;;;8.07;93.79
24154;BME280;12312;53.362;-1.518;2022-10-18T04:31:22;100265.47;;;8.01;94.26
24154;BME280;12312;53.362;-1.518;2022-10-18T04:33:48;100276.34;;;7.95;94.44
24154;BME280;12312;53.362;-1.518;2022-10-18T04:36:14;100273.06;;;8.08;94.80
24154;BME280;12312;53.362;-1.518;2022-10-18T04:38:40;100276.69;;;7.87;94.36
24154;BME280;12312;53.362;-1.518;2022-10-18T04:41:06;100273.41;;;7.82;94.99
24154;BME280;12312;53.362;-1.518;2022-10-18T04:43:32;100278.03;;;7.57;94.71
24154;BME280;12312;53.362;-1.518;2022-10-18T04:46:02;100270.84;;;7.61;95.70
24154;BME280;12312;53.362;-1.518;2022-10-18T04:48:28;100262.34;;;7.73;96.82
24154;BME280;12312;53.362;-1.518;2022-10-18T04:50:53;100263.91;;;7.77;96.39
24154;BME280;12312;53.362;-1.518;2022-10-18T04:53:19;100272.13;;;7.91;96.86
24154;BME280;12312;53.362;-1.518;2022-10-18T04:55:46;100276.00;;;8.02;96.60
24154;BME280;12312;53.362;-1.518;2022-10-18T04:58:13;100283.03;;;8.03;96.24
24154;BME280;12312;53.362;-1.518;2022-10-18T05:00:39;100289.31;;;8.01;94.90
24154;BME280;12312;53.362;-1.518;2022-10-18T05:03:05;100288.09;;;7.89;94.86
24154;BME280;12312;53.362;-1.518;2022-10-18T05:05:32;100291.81;;;7.65;95.13
24154;BME280;12312;53.362;-1.518;2022-10-18T05:07:58;100296.13;;;7.68;95.04
24154;BME280;12312;53.362;-1.518;2022-10-18T05:10:23;100312.75;;;7.51;96.55
24154;BME280;12312;53.362;-1.518;2022-10-18T05:12:49;100312.88;;;7.68;96.10
24154;BME280;12312;53.362;-1.518;2022-10-18T05:15:14;100313.72;;;7.69;97.11
24154;BME280;12312;53.362;-1.518;2022-10-18T05:17:40;100300.19;;;7.76;96.17
24154;BME280;12312;53.362;-1.518;2022-10-18T05:20:07;100300.13;;;7.96;95.57
24154;BME280;12312;53.362;-1.518;2022-10-18T05:22:32;100302.50;;;8.02;96.04
24154;BME280;12312;53.362;-1.518;2022-10-18T05:24:58;100312.69;;;7.93;96.29
24154;BME280;12312;53.362;-1.518;2022-10-18T05:27:24;100317.78;;;7.97;96.42
24154;BME280;12312;53.362;-1.518;2022-10-18T05:29:49;100323.81;;;7.81;96.32
24154;BME280;12312;53.362;-1.518;2022-10-18T05:32:15;100322.00;;;8.01;96.66
24154;BME280;12312;53.362;-1.518;2022-10-18T05:34:41;100328.19;;;8.20;95.40
24154;BME280;12312;53.362;-1.518;2022-10-18T05:37:07;100324.38;;;8.27;94.27
24154;BME280;12312;53.362;-1.518;2022-10-18T05:39:32;100319.22;;;8.24;94.69
24154;BME280;12312;53.362;-1.518;2022-10-18T05:41:58;100315.22;;;8.34;94.88
24154;BME280;12312;53.362;-1.518;2022-10-18T05:44:24;100313.06;;;8.42;95.47
24154;BME280;12312;53.362;-1.518;2022-10-18T05:46:50;100314.09;;;8.40;95.27
24154;BME280;12312;53.362;-1.518;2022-10-18T05:49:16;100315.81;;;8.59;97.98
24154;BME280;12312;53.362;-1.518;2022-10-18T05:51:41;100310.22;;;8.65;97.82
24154;BME280;12312;53.362;-1.518;2022-10-18T05:54:10;100303.38;;;8.60;96.82
24154;BME280;12312;53.362;-1.518;2022-10-18T05:56:37;100313.06;;;8.42;96.51
24154;BME280;12312;53.362;-1.518;2022-10-18T05:59:02;100318.69;;;8.73;98.31
24154;BME280;12312;53.362;-1.518;2022-10-18T06:01:35;100300.50;;;8.64;94.21
24154;BME280;12312;53.362;-1.518;2022-10-18T06:04:01;100298.72;;;8.65;95.75
24154;BME280;12312;53.362;-1.518;2022-10-18T06:06:26;100308.22;;;8.52;95.36
24154;BME280;12312;53.362;-1.518;2022-10-18T06:08:52;100314.66;;;8.28;94.73
24154;BME280;12312;53.362;-1.518;2022-10-18T06:11:19;100324.53;;;8.24;98.52
24154;BME280;12312;53.362;-1.518;2022-10-18T06:13:48;100332.09;;;7.53;95.90
24154;BME280;12312;53.362;-1.518;2022-10-18T06:16:16;100333.63;;;7.37;95.62
24154;BME280;12312;53.362;-1.518;2022-10-18T06:18:46;100328.66;;;7.71;95.48
24154;BME280;12312;53.362;-1.518;2022-10-18T06:21:12;100336.66;;;7.28;95.48
24154;BME280;12312;53.362;-1.518;2022-10-18T06:23:38;100342.66;;;7.33;98.64
24154;BME280;12312;53.362;-1.518;2022-10-18T06:26:05;100346.38;;;7.49;97.51
24154;BME280;12312;53.362;-1.518;2022-10-18T06:28:33;100342.41;;;7.59;96.86
24154;BME280;12312;53.362;-1.518;2022-10-18T06:31:00;100340.00;;;7.33;97.74
24154;BME280;12312;53.362;-1.518;2022-10-18T06:33:25;100338.50;;;7.68;100.00
24154;BME280;12312;53.362;-1.518;2022-10-18T06:36:12;100343.88;;;7.86;100.00
24154;BME280;12312;53.362;-1.518;2022-10-18T06:38:38;100359.56;;;8.11;100.00
24154;BME280;12312;53.362;-1.518;2022-10-18T06:41:04;100357.44;;;8.19;100.00
24154;BME280;12312;53.362;-1.518;2022-10-18T06:43:31;100357.25;;;8.03;99.22
24154;BME280;12312;53.362;-1.518;2022-10-18T06:45:56;100355.91;;;8.13;98.23
24154;BME280;12312;53.362;-1.518;2022-10-18T06:48:23;100352.09;;;7.80;96.36
24154;BME280;12312;53.362;-1.518;2022-10-18T06:51:00;100357.94;;;7.88;96.97
24154;BME280;12312;53.362;-1.518;2022-10-18T06:53:27;100361.97;;;7.97;95.20
24154;BME280;12312;53.362;-1.518;2022-10-18T06:56:01;100367.06;;;8.01;95.72
24154;BME280;12312;53.362;-1.518;2022-10-18T06:58:28;100361.34;;;7.90;94.82
24154;BME280;12312;53.362;-1.518;2022-10-18T07:00:54;100361.22;;;7.93;95.96
24154;BME280;12312;53.362;-1.518;2022-10-18T07:03:20;100364.25;;;7.64;97.04
24154;BME280;12312;53.362;-1.518;2022-10-18T07:05:47;100378.19;;;7.69;96.93
24154;BME280;12312;53.362;-1.518;2022-10-18T07:08:13;100375.81;;;7.83;96.49
24154;BME280;12312;53.362;-1.518;2022-10-18T07:10:38;100380.03;;;7.87;96.23
24154;BME280;12312;53.362;-1.518;2022-10-18T07:13:04;100389.66;;;7.70;97.00
24154;BME280;12312;53.362;-1.518;2022-10-18T07:15:30;100387.28;;;7.84;97.00
24154;BME280;12312;53.362;-1.518;2022-10-18T07:17:56;100393.28;;;7.87;95.99
24154;BME280;12312;53.362;-1.518;2022-10-18T07:20:21;100397.22;;;7.99;96.36
24154;BME280;12312;53.362;-1.518;2022-10-18T07:22:47;100400.22;;;8.31;99.42
24154;BME280;12312;53.362;-1.518;2022-10-18T07:25:13;100399.44;;;8.86;100.00
24154;BME280;12312;53.362;-1.518;2022-10-18T07:27:41;100409.03;;;9.26;100.00
24154;BME280;12312;53.362;-1.518;2022-10-18T07:30:08;100425.97;;;8.86;95.52
24154;BME280;12312;53.362;-1.518;2022-10-18T07:32:35;100430.56;;;8.83;94.99
24154;BME280;12312;53.362;-1.518;2022-10-18T07:35:01;100429.19;;;8.74;93.60
24154;BME280;12312;53.362;-1.518;2022-10-18T07:37:28;100427.38;;;8.56;93.49
24154;BME280;12312;53.362;-1.518;2022-10-18T07:39:53;100427.25;;;8.59;93.62
24154;BME280;12312;53.362;-1.518;2022-10-18T07:42:19;100434.00;;;8.46;93.74
24154;BME280;12312;53.362;-1.518;2022-10-18T07:44:45;100446.16;;;8.52;94.23
24154;BME280;12312;53.362;-1.518;2022-10-18T07:47:10;100457.00;;;8.66;93.06
24154;BME280;12312;53.362;-1.518;2022-10-18T07:49:36;100466.38;;;8.54;93.16
24154;BME280;12312;53.362;-1.518;2022-10-18T07:52:01;100452.44;;;8.49;94.87
24154;BME280;12312;53.362;-1.518;2022-10-18T07:54:27;100461.81;;;8.58;95.65
24154;BME280;12312;53.362;-1.518;2022-10-18T07:56:52;100458.38;;;8.74;94.92
24154;BME280;12312;53.362;-1.518;2022-10-18T07:59:18;100475.56;;;8.66;92.61
24154;BME280;12312;53.362;-1.518;2022-10-18T08:01:43;100478.00;;;8.52;92.97
24154;BME280;12312;53.362;-1.518;2022-10-18T08:04:09;100480.56;;;8.53;93.60
24154;BME280;12312;53.362;-1.518;2022-10-18T08:06:36;100485.53;;;8.61;92.60
24154;BME280;12312;53.362;-1.518;2022-10-18T08:09:02;100488.84;;;8.66;93.40
24154;BME280;12312;53.362;-1.518;2022-10-18T08:11:27;100493.84;;;8.92;92.89
24154;BME280;12312;53.362;-1.518;2022-10-18T08:13:53;100507.34;;;8.67;93.44
24154;BME280;12312;53.362;-1.518;2022-10-18T08:16:24;100503.72;;;8.70;94.36
24154;BME280;12312;53.362;-1.518;2022-10-18T08:18:50;100506.03;;;8.77;94.71
24154;BME280;12312;53.362;-1.518;2022-10-18T08:21:17;100514.81;;;8.98;94.41
24154;BME280;12312;53.362;-1.518;2022-10-18T08:23:43;100511.38;;;9.33;93.41
24154;BME280;12312;53.362;-1.518;2022-10-18T08:26:11;100519.44;;;9.50;92.51
24154;BME280;12312;53.362;-1.518;2022-10-18T08:28:38;100523.03;;;9.49;91.22
24154;BME280;12312;53.362;-1.518;2022-10-18T08:31:12;100526.31;;;9.73;89.84
24154;BME280;12312;53.362;-1.518;2022-10-18T08:33:38;100526.84;;;9.98;89.57
24154;BME280;12312;53.362;-1.518;2022-10-18T08:36:06;100531.28;;;10.16;88.46
24154;BME280;12312;53.362;-1.518;2022-10-18T08:38:36;100537.06;;;10.07;87.57
24154;BME280;12312;53.362;-1.518;2022-10-18T08:44:06;100537.25;;;10.38;86.96
24154;BME280;12312;53.362;-1.518;2022-10-18T08:46:43;100545.25;;;10.55;86.40
24154;BME280;12312;53.362;-1.518;2022-10-18T08:51:47;100569.84;;;10.60;86.06
24154;BME280;12312;53.362;-1.518;2022-10-18T08:57:25;100559.47;;;10.88;85.39
24154;BME280;12312;53.362;-1.518;2022-10-18T08:59:50;100567.28;;;11.08;83.13
24154;BME280;12312;53.362;-1.518;2022-10-18T09:11:13;100556.72;;;12.17;98.34
24154;BME280;12312;53.362;-1.518;2022-10-18T09:17:05;100561.41;;;12.13;80.74
24154;BME280;12312;53.362;-1.518;2022-10-18T09:22:12;100565.81;;;11.35;80.63
24154;BME280;12312;53.362;-1.518;2022-10-18T09:24:41;100564.66;;;11.24;82.19
24154;BME280;12312;53.362;-1.518;2022-10-18T09:27:19;100573.47;;;11.09;83.14
24154;BME280;12312;53.362;-1.518;2022-10-18T09:35:12;100570.91;;;11.07;82.06
24154;BME280;12312;53.362;-1.518;2022-10-18T09:37:38;100565.59;;;11.23;82.46
24154;BME280;12312;53.362;-1.518;2022-10-18T09:40:23;100568.34;;;11.21;82.28
24154;BME280;12312;53.362;-1.518;2022-10-18T09:45:35;100570.78;;;11.41;81.04
24154;BME280;12312;53.362;-1.518;2022-10-18T09:50:43;100574.66;;;11.68;80.64
24154;BME280;12312;53.362;-1.518;2022-10-18T09:56:09;100582.91;;;11.64;79.38
24154;BME280;12312;53.362;-1.518;2022-10-18T09:58:44;100592.31;;;11.54;80.30
24154;BME280;12312;53.362;-1.518;2022-10-18T10:01:13;100590.13;;;11.62;79.96
24154;BME280;12312;53.362;-1.518;2022-10-18T10:03:41;100595.31;;;11.65;79.98
24154;BME280;12312;53.362;-1.518;2022-10-18T10:08:36;100603.22;;;11.66;79.94
24154;BME280;12312;53.362;-1.518;2022-10-18T10:11:29;100612.31;;;11.62;80.79
24154;BME280;12312;53.362;-1.518;2022-10-18T10:14:15;100614.84;;;11.81;79.78
24154;BME280;12312;53.362;-1.518;2022-10-18T10:16:51;100624.16;;;11.89;80.58
24154;BME280;12312;53.362;-1.518;2022-10-18T10:19:27;100621.84;;;11.83;80.23
24154;BME280;12312;53.362;-1.518;2022-10-18T10:21:57;100623.03;;;11.93;79.50
24154;BME280;12312;53.362;-1.518;2022-10-18T10:24:28;100631.13;;;11.92;79.13
24154;BME280;12312;53.362;-1.518;2022-10-18T10:27:02;100636.97;;;11.83;79.75
24154;BME280;12312;53.362;-1.518;2022-10-18T10:32:15;100639.56;;;11.84;80.53
24154;BME280;12312;53.362;-1.518;2022-10-18T10:34:40;100641.25;;;11.85;80.12
24154;BME280;12312;53.362;-1.518;2022-10-18T10:42:53;100640.50;;;11.99;79.67
24154;BME280;12312;53.362;-1.518;2022-10-18T10:45:21;100631.50;;;12.01;80.19
24154;BME280;12312;53.362;-1.518;2022-10-18T10:47:50;100630.44;;;12.04;78.94
24154;BME280;12312;53.362;-1.518;2022-10-18T10:50:23;100626.47;;;12.42;77.37
24154;BME280;12312;53.362;-1.518;2022-10-18T10:52:51;100629.50;;;13.25;78.92
24154;BME280;12312;53.362;-1.518;2022-10-18T10:55:32;100635.47;;;13.72;74.69
24154;BME280;12312;53.362;-1.518;2022-10-18T10:57:59;100633.84;;;13.55;72.39
24154;BME280;12312;53.362;-1.518;2022-10-18T11:00:38;100630.13;;;13.44;72.25
24154;BME280;12312;53.362;-1.518;2022-10-18T11:03:19;100639.81;;;12.57;75.68
24154;BME280;12312;53.362;-1.518;2022-10-18T11:05:53;100634.38;;;12.89;75.59
24154;BME280;12312;53.362;-1.518;2022-10-18T11:08:32;100623.13;;;12.84;74.09
24154;BME280;12312;53.362;-1.518;2022-10-18T11:13:59;100622.94;;;12.87;75.02
24154;BME280;12312;53.362;-1.518;2022-10-18T11:16:32;100617.03;;;13.39;72.80
24154;BME280;12312;53.362;-1.518;2022-10-18T11:19:10;100617.59;;;15.07;66.41
24154;BME280;12312;53.362;-1.518;2022-10-18T11:21:38;100598.44;;;16.35;63.52
24154;BME280;12312;53.362;-1.518;2022-10-18T11:24:11;100603.44;;;17.56;57.29
24154;BME280;12312;53.362;-1.518;2022-10-18T11:29:30;100592.22;;;18.49;53.62
24154;BME280;12312;53.362;-1.518;2022-10-18T11:32:12;100587.88;;;19.09;52.08
24154;BME280;12312;53.362;-1.518;2022-10-18T11:50:44;100593.66;;;19.67;48.63
24154;BME280;12312;53.362;-1.518;2022-10-18T11:53:33;100592.22;;;19.21;49.53
24154;BME280;12312;53.362;-1.518;2022-10-18T11:56:24;100585.84;;;20.03;48.25
24154;BME280;12312;53.362;-1.518;2022-10-18T12:05:14;100581.09;;;21.40;44.47
24154;BME280;12312;53.362;-1.518;2022-10-18T12:07:52;100575.72;;;22.13;42.00
24154;BME280;12312;53.362;-1.518;2022-10-18T12:10:21;100570.38;;;21.94;42.78
24154;BME280;12312;53.362;-1.518;2022-10-18T12:12:51;100563.78;;;21.14;43.90
24154;BME280;12312;53.362;-1.518;2022-10-18T12:15:24;100557.94;;;20.90;45.11
24154;BME280;12312;53.362;-1.518;2022-10-18T12:17:53;100550.38;;;21.22;46.33
24154;BME280;12312;53.362;-1.518;2022-10-18T12:25:22;100541.09;;;21.98;40.99
24154;BME280;12312;53.362;-1.518;2022-10-18T12:27:55;100543.75;;;21.80;39.97
24154;BME280;12312;53.362;-1.518;2022-10-18T12:30:41;100546.97;;;20.53;43.98
24154;BME280;12312;53.362;-1.518;2022-10-18T12:33:20;100538.69;;;20.45;44.52
24154;BME280;12312;53.362;-1.518;2022-10-18T12:38:44;100542.41;;;20.73;43.08
24154;BME280;12312;53.362;-1.518;2022-10-18T12:41:30;100537.13;;;20.81;42.54
24154;BME280;12312;53.362;-1.518;2022-10-18T12:44:04;100542.34;;;21.30;42.50
24154;BME280;12312;53.362;-1.518;2022-10-18T12:46:52;100542.97;;;20.48;44.54
24154;BME280;12312;53.362;-1.518;2022-10-18T12:52:01;100519.28;;;22.61;39.47
24154;BME280;12312;53.362;-1.518;2022-10-18T12:54:35;100515.63;;;22.08;39.21
24154;BME280;12312;53.362;-1.518;2022-10-18T12:57:04;100523.09;;;22.41;39.90
24154;BME280;12312;53.362;-1.518;2022-10-18T13:04:32;100518.44;;;21.89;42.76
24154;BME280;12312;53.362;-1.518;2022-10-18T13:09:37;100528.72;;;20.36;42.85
24154;BME280;12312;53.362;-1.518;2022-10-18T13:14:58;100534.50;;;18.40;48.68
24154;BME280;12312;53.362;-1.518;2022-10-18T13:20:26;100540.63;;;16.77;54.82
24154;BME280;12312;53.362;-1.518;2022-10-18T13:23:47;100535.13;;;16.08;55.55
24154;BME280;12312;53.362;-1.518;2022-10-18T13:34:32;100545.28;;;16.04;58.27
24154;BME280;12312;53.362;-1.518;2022-10-18T13:39:34;100548.09;;;16.50;55.34
24154;BME280;12312;53.362;-1.518;2022-10-18T13:44:28;100550.69;;;15.79;56.50
24154;BME280;12312;53.362;-1.518;2022-10-18T14:06:15;100549.75;;;14.14;62.79
24154;BME280;12312;53.362;-1.518;2022-10-18T14:11:35;100544.44;;;14.00;64.63
24154;BME280;12312;53.362;-1.518;2022-10-18T14:14:15;100540.19;;;14.10;65.42
24154;BME280;12312;53.362;-1.518;2022-10-18T14:16:57;100551.16;;;14.19;66.56
24154;BME280;12312;53.362;-1.518;2022-10-18T14:19:34;100550.78;;;14.25;66.01
24154;BME280;12312;53.362;-1.518;2022-10-18T14:22:13;100551.75;;;14.24;63.68
24154;BME280;12312;53.362;-1.518;2022-10-18T14:24:44;100547.69;;;14.05;64.28
24154;BME280;12312;53.362;-1.518;2022-10-18T14:27:22;100563.75;;;14.05;64.56
24154;BME280;12312;53.362;-1.518;2022-10-18T14:29:50;100551.91;;;13.95;65.03
24154;BME280;12312;53.362;-1.518;2022-10-18T14:32:32;100555.81;;;14.03;65.16
24154;BME280;12312;53.362;-1.518;2022-10-18T14:34:59;100558.25;;;13.80;67.52
24154;BME280;12312;53.362;-1.518;2022-10-18T14:37:31;100558.94;;;13.83;67.51
24154;BME280;12312;53.362;-1.518;2022-10-18T14:39:58;100552.22;;;13.76;66.42
24154;BME280;12312;53.362;-1.518;2022-10-18T14:42:26;100551.59;;;13.59;65.13
24154;BME280;12312;53.362;-1.518;2022-10-18T14:44:53;100546.81;;;13.64;65.16
24154;BME280;12312;53.362;-1.518;2022-10-18T14:47:24;100541.72;;;13.73;65.59
24154;BME280;12312;53.362;-1.518;2022-10-18T14:49:50;100543.66;;;13.71;66.83
24154;BME280;12312;53.362;-1.518;2022-10-18T14:52:24;100541.09;;;13.70;67.07
24154;BME280;12312;53.362;-1.518;2022-10-18T14:54:53;100543.56;;;13.73;67.54
24154;BME280;12312;53.362;-1.518;2022-10-18T14:57:31;100538.56;;;13.81;66.59
24154;BME280;12312;53.362;-1.518;2022-10-18T15:00:00;100540.88;;;13.87;66.71
24154;BME280;12312;53.362;-1.518;2022-10-18T15:02:30;100539.81;;;13.75;66.23
24154;BME280;12312;53.362;-1.518;2022-10-18T15:05:08;100550.41;;;13.77;68.61
24154;BME280;12312;53.362;-1.518;2022-10-18T15:07:35;100543.56;;;13.73;67.15
24154;BME280;12312;53.362;-1.518;2022-10-18T15:10:03;100538.09;;;13.74;66.30
24154;BME280;12312;53.362;-1.518;2022-10-18T15:12:30;100540.28;;;13.82;67.19
24154;BME280;12312;53.362;-1.518;2022-10-18T15:14:57;100539.09;;;13.59;67.41
24154;BME280;12312;53.362;-1.518;2022-10-18T15:17:29;100552.19;;;13.64;68.22
24154;BME280;12312;53.362;-1.518;2022-10-18T15:22:43;100545.69;;;13.26;67.62
24154;BME280;12312;53.362;-1.518;2022-10-18T15:25:21;100547.41;;;13.27;68.32
24154;BME280;12312;53.362;-1.518;2022-10-18T15:27:53;100560.66;;;13.14;68.27
24154;BME280;12312;53.362;-1.518;2022-10-18T15:30:27;100556.88;;;13.18;68.76
24154;BME280;12312;53.362;-1.518;2022-10-18T15:33:00;100552.38;;;13.19;69.05
24154;BME280;12312;53.362;-1.518;2022-10-18T15:35:32;100551.78;;;13.28;68.68